LiveATC.Net - Listen to live air traffic control over the Internet!


ICAO: KMAE  IATA: MAE   Airport: Madera Municipal Airport
City: Madera   State/Province: California
Country: United States   Continent: North America
KMAE METAR Weather: KMAE 251153Z AUTO 11003KT 7SM CLR 07/05 A3027 RMK AO2 SLP249 T00670050 10089 20056 51001
KMAE Flight Activity (FlightAware)
KMAE Airport Info   (iFlightPlanner)
KMAE VFR Sectional Chart   (iFlightPlanner) 
KMAE IFR Low Chart   (iFlightPlanner) 

KFCH/KMAE/E79 CTAF
Feed Status: UP   Listeners: 0
Listen in your browser - HTML5 player (in browser, HTML5)
Click here to listen with your own player (launches your MP3 player)
Archive Access: KFCH/KMAE/E79 CTAF
FacilityFrequency
Emergency/Guard121.500
Fresno/Chandler CTAF123.000
Madera CTAF122.800
Reedly O32 CTAF122.700
Skypark E79 CTAF122.900

NOTICE

Unauthorized use prohibited. See LiveATC.net Terms of Service


Airport/ARTCC Code
Frequency Search
(e.g., 124.400, 128.75)
Site-wide search
 


Browse Feeds
Top 50 Feeds
Coverage Map
Bad Weather Areas

LiveATC FAQ
Offer LiveATC feed
Contact LiveATC.net
Press Inquiries

LiveATC on iPhone
LiveATC on Android

Windows Phone
Windows 8/10

LiveATC Mobile
(Mobile browser)

ATC Audio Archives
Interesting Recordings

LiveATC Forums


Home Page
About LiveATC.net
Make a Donation
Terms of Use
Privacy Policy

Canadian Air Freqs

AIRMETs/SIGMETs

FAA Airport Status
Nat'l Airspace Status
Arrival Demand Charts


Server Software By:
Icecast.org
Liquidsoap